sensor_id;sensor_type;location;lat;lon;timestamp;temperature;humidity
22698;DHT22;11516;51.612;7.510;2022-08-25T00:00:42;22.20;87.00
22698;DHT22;11516;51.612;7.510;2022-08-25T00:03:08;22.10;86.80
22698;DHT22;11516;51.612;7.510;2022-08-25T00:05:34;22.10;87.20
22698;DHT22;11516;51.612;7.510;2022-08-25T00:08:00;22.10;87.20
22698;DHT22;11516;51.612;7.510;2022-08-25T00:10:26;22.10;87.80
22698;DHT22;11516;51.612;7.510;2022-08-25T00:12:53;22.00;87.90
22698;DHT22;11516;51.612;7.510;2022-08-25T00:15:18;22.00;87.70
22698;DHT22;11516;51.612;7.510;2022-08-25T00:17:46;21.90;88.20
22698;DHT22;11516;51.612;7.510;2022-08-25T00:20:11;21.90;88.40
22698;DHT22;11516;51.612;7.510;2022-08-25T00:22:37;21.90;88.90
22698;DHT22;11516;51.612;7.510;2022-08-25T00:25:02;21.90;88.80
22698;DHT22;11516;51.612;7.510;2022-08-25T00:27:28;21.80;89.00
22698;DHT22;11516;51.612;7.510;2022-08-25T00:29:54;21.80;89.40
22698;DHT22;11516;51.612;7.510;2022-08-25T00:32:19;21.80;89.30
22698;DHT22;11516;51.612;7.510;2022-08-25T00:34:45;21.80;89.80
22698;DHT22;11516;51.612;7.510;2022-08-25T00:37:10;21.80;89.90
22698;DHT22;11516;51.612;7.510;2022-08-25T00:39:37;21.70;89.70
22698;DHT22;11516;51.612;7.510;2022-08-25T00:42:04;21.70;90.00
22698;DHT22;11516;51.612;7.510;2022-08-25T00:44:32;21.70;90.30
22698;DHT22;11516;51.612;7.510;2022-08-25T00:47:00;21.70;90.30
22698;DHT22;11516;51.612;7.510;2022-08-25T00:49:50;21.60;90.30
22698;DHT22;11516;51.612;7.510;2022-08-25T00:52:25;21.60;90.50
22698;DHT22;11516;51.612;7.510;2022-08-25T00:54:55;21.50;90.50
22698;DHT22;11516;51.612;7.510;2022-08-25T00:57:29;21.50;90.50
22698;DHT22;11516;51.612;7.510;2022-08-25T00:59:57;21.50;90.60
22698;DHT22;11516;51.612;7.510;2022-08-25T01:02:22;21.40;90.60
22698;DHT22;11516;51.612;7.510;2022-08-25T01:04:48;21.40;90.40
22698;DHT22;11516;51.612;7.510;2022-08-25T01:07:15;21.40;90.60
22698;DHT22;11516;51.612;7.510;2022-08-25T01:09:42;21.40;90.50
22698;DHT22;11516;51.612;7.510;2022-08-25T01:12:08;21.40;90.50
22698;DHT22;11516;51.612;7.510;2022-08-25T01:14:35;21.40;91.00
22698;DHT22;11516;51.612;7.510;2022-08-25T01:17:01;21.30;91.00
22698;DHT22;11516;51.612;7.510;2022-08-25T01:19:29;21.30;91.10
22698;DHT22;11516;51.612;7.510;2022-08-25T01:21:58;21.20;91.20
22698;DHT22;11516;51.612;7.510;2022-08-25T01:24:46;21.20;91.10
22698;DHT22;11516;51.612;7.510;2022-08-25T01:27:15;21.20;91.30
22698;DHT22;11516;51.612;7.510;2022-08-25T01:29:41;21.20;91.00
22698;DHT22;11516;51.612;7.510;2022-08-25T01:32:09;21.10;91.10
22698;DHT22;11516;51.612;7.510;2022-08-25T01:34:38;21.10;91.50
22698;DHT22;11516;51.612;7.510;2022-08-25T01:37:05;21.10;91.30
22698;DHT22;11516;51.612;7.510;2022-08-25T01:39:32;21.10;91.20
22698;DHT22;11516;51.612;7.510;2022-08-25T01:42:18;21.10;91.50
22698;DHT22;11516;51.612;7.510;2022-08-25T01:44:47;21.10;91.30
22698;DHT22;11516;51.612;7.510;2022-08-25T01:47:13;21.10;91.40
22698;DHT22;11516;51.612;7.510;2022-08-25T01:49:39;21.10;91.40
22698;DHT22;11516;51.612;7.510;2022-08-25T01:52:29;21.10;91.50
22698;DHT22;11516;51.612;7.510;2022-08-25T01:54:56;21.00;91.60
22698;DHT22;11516;51.612;7.510;2022-08-25T01:57:22;21.00;91.80
22698;DHT22;11516;51.612;7.510;2022-08-25T01:59:48;20.90;91.90
22698;DHT22;11516;51.612;7.510;2022-08-25T02:02:13;20.90;92.10
22698;DHT22;11516;51.612;7.510;2022-08-25T02:04:39;20.80;92.20
22698;DHT22;11516;51.612;7.510;2022-08-25T02:07:06;20.80;92.20
22698;DHT22;11516;51.612;7.510;2022-08-25T02:09:33;20.80;92.20
22698;DHT22;11516;51.612;7.510;2022-08-25T02:11:59;20.80;91.90
22698;DHT22;11516;51.612;7.510;2022-08-25T02:14:25;20.70;92.00
22698;DHT22;11516;51.612;7.510;2022-08-25T02:16:52;20.70;91.80
22698;DHT22;11516;51.612;7.510;2022-08-25T02:19:19;20.70;91.90
22698;DHT22;11516;51.612;7.510;2022-08-25T02:21:46;20.60;92.00
22698;DHT22;11516;51.612;7.510;2022-08-25T02:24:12;20.70;92.20
22698;DHT22;11516;51.612;7.510;2022-08-25T02:26:37;20.60;92.20
22698;DHT22;11516;51.612;7.510;2022-08-25T02:29:04;20.60;92.40
22698;DHT22;11516;51.612;7.510;2022-08-25T02:31:31;20.60;92.50
22698;DHT22;11516;51.612;7.510;2022-08-25T02:33:57;20.60;92.80
22698;DHT22;11516;51.612;7.510;2022-08-25T02:36:23;20.50;92.90
22698;DHT22;11516;51.612;7.510;2022-08-25T02:38:49;20.50;93.00
22698;DHT22;11516;51.612;7.510;2022-08-25T02:41:20;20.40;92.90
22698;DHT22;11516;51.612;7.510;2022-08-25T02:43:47;20.40;92.90
22698;DHT22;11516;51.612;7.510;2022-08-25T02:46:13;20.40;93.00
22698;DHT22;11516;51.612;7.510;2022-08-25T02:48:40;20.40;93.40
22698;DHT22;11516;51.612;7.510;2022-08-25T02:51:07;20.40;93.40
22698;DHT22;11516;51.612;7.510;2022-08-25T02:53:34;20.40;93.90
22698;DHT22;11516;51.612;7.510;2022-08-25T02:56:00;20.30;93.70
22698;DHT22;11516;51.612;7.510;2022-08-25T02:58:26;20.40;93.60
22698;DHT22;11516;51.612;7.510;2022-08-25T03:00:51;20.30;93.60
22698;DHT22;11516;51.612;7.510;2022-08-25T03:03:18;20.30;93.90
22698;DHT22;11516;51.612;7.510;2022-08-25T03:05:44;20.30;94.00
22698;DHT22;11516;51.612;7.510;2022-08-25T03:08:10;20.30;94.30
22698;DHT22;11516;51.612;7.510;2022-08-25T03:10:36;20.20;94.50
22698;DHT22;11516;51.612;7.510;2022-08-25T03:13:01;20.20;94.60
22698;DHT22;11516;51.612;7.510;2022-08-25T03:15:27;20.10;94.40
22698;DHT22;11516;51.612;7.510;2022-08-25T03:17:54;20.10;94.40
22698;DHT22;11516;51.612;7.510;2022-08-25T03:20:24;20.00;94.40
22698;DHT22;11516;51.612;7.510;2022-08-25T03:22:52;20.00;94.80
22698;DHT22;11516;51.612;7.510;2022-08-25T03:25:17;20.10;94.70
22698;DHT22;11516;51.612;7.510;2022-08-25T03:28:13;20.10;94.60
22698;DHT22;11516;51.612;7.510;2022-08-25T03:30:39;20.10;94.50
22698;DHT22;11516;51.612;7.510;2022-08-25T03:33:04;20.10;95.10
22698;DHT22;11516;51.612;7.510;2022-08-25T03:35:30;20.10;94.80
22698;DHT22;11516;51.612;7.510;2022-08-25T03:37:56;20.00;94.90
22698;DHT22;11516;51.612;7.510;2022-08-25T03:40:22;20.00;94.90
22698;DHT22;11516;51.612;7.510;2022-08-25T03:42:48;20.00;95.00
22698;DHT22;11516;51.612;7.510;2022-08-25T03:45:16;20.10;95.10
22698;DHT22;11516;51.612;7.510;2022-08-25T03:47:45;20.00;95.00
22698;DHT22;11516;51.612;7.510;2022-08-25T03:50:12;19.90;95.00
22698;DHT22;11516;51.612;7.510;2022-08-25T03:52:38;19.90;95.10
22698;DHT22;11516;51.612;7.510;2022-08-25T03:55:06;19.90;95.30
22698;DHT22;11516;51.612;7.510;2022-08-25T03:57:32;19.90;95.90
22698;DHT22;11516;51.612;7.510;2022-08-25T03:59:58;19.80;95.50
22698;DHT22;11516;51.612;7.510;2022-08-25T04:02:23;19.80;95.80
22698;DHT22;11516;51.612;7.510;2022-08-25T04:04:49;19.80;95.80
22698;DHT22;11516;51.612;7.510;2022-08-25T04:07:15;19.80;95.70
22698;DHT22;11516;51.612;7.510;2022-08-25T04:09:40;19.70;95.80
22698;DHT22;11516;51.612;7.510;2022-08-25T04:12:06;19.70;95.80
22698;DHT22;11516;51.612;7.510;2022-08-25T04:14:32;19.70;95.80
22698;DHT22;11516;51.612;7.510;2022-08-25T04:16:57;19.70;96.00
22698;DHT22;11516;51.612;7.510;2022-08-25T04:19:23;19.70;96.10
22698;DHT22;11516;51.612;7.510;2022-08-25T04:21:49;19.70;96.10
22698;DHT22;11516;51.612;7.510;2022-08-25T04:24:16;19.60;96.20
22698;DHT22;11516;51.612;7.510;2022-08-25T04:26:48;19.60;96.40
22698;DHT22;11516;51.612;7.510;2022-08-25T04:29:17;19.60;96.50
22698;DHT22;11516;51.612;7.510;2022-08-25T04:31:44;19.60;96.50
22698;DHT22;11516;51.612;7.510;2022-08-25T04:34:11;19.50;96.60
22698;DHT22;11516;51.612;7.510;2022-08-25T04:36:37;19.60;96.70
22698;DHT22;11516;51.612;7.510;2022-08-25T04:39:03;19.50;96.60
22698;DHT22;11516;51.612;7.510;2022-08-25T04:41:29;19.50;96.60
22698;DHT22;11516;51.612;7.510;2022-08-25T04:43:57;19.50;96.70
22698;DHT22;11516;51.612;7.510;2022-08-25T04:46:26;19.50;96.90
22698;DHT22;11516;51.612;7.510;2022-08-25T04:48:54;19.50;97.00
22698;DHT22;11516;51.612;7.510;2022-08-25T04:51:23;19.60;96.70
22698;DHT22;11516;51.612;7.510;2022-08-25T04:53:49;19.60;96.90
22698;DHT22;11516;51.612;7.510;2022-08-25T04:56:17;19.60;96.90
22698;DHT22;11516;51.612;7.510;2022-08-25T04:58:44;19.60;97.20
22698;DHT22;11516;51.612;7.510;2022-08-25T05:01:20;19.60;97.10
22698;DHT22;11516;51.612;7.510;2022-08-25T05:03:47;19.60;97.30
22698;DHT22;11516;51.612;7.510;2022-08-25T05:06:13;19.60;97.10
22698;DHT22;11516;51.612;7.510;2022-08-25T05:08:39;19.60;97.30
22698;DHT22;11516;51.612;7.510;2022-08-25T05:11:09;19.60;97.30
22698;DHT22;11516;51.612;7.510;2022-08-25T05:13:37;19.70;97.20
22698;DHT22;11516;51.612;7.510;2022-08-25T05:16:03;19.70;97.30
22698;DHT22;11516;51.612;7.510;2022-08-25T05:18:30;19.70;97.50
22698;DHT22;11516;51.612;7.510;2022-08-25T05:21:00;19.70;97.40
22698;DHT22;11516;51.612;7.510;2022-08-25T05:23:25;19.80;97.30
22698;DHT22;11516;51.612;7.510;2022-08-25T05:25:52;19.80;97.30
22698;DHT22;11516;51.612;7.510;2022-08-25T05:28:19;19.80;97.60
22698;DHT22;11516;51.612;7.510;2022-08-25T05:30:45;19.80;97.60
22698;DHT22;11516;51.612;7.510;2022-08-25T05:33:14;19.80;97.40
22698;DHT22;11516;51.612;7.510;2022-08-25T05:35:41;19.90;97.40
22698;DHT22;11516;51.612;7.510;2022-08-25T05:38:07;20.00;97.70
22698;DHT22;11516;51.612;7.510;2022-08-25T05:40:32;20.20;97.90
22698;DHT22;11516;51.612;7.510;2022-08-25T05:42:58;20.00;97.70
22698;DHT22;11516;51.612;7.510;2022-08-25T05:45:24;20.00;97.80
22698;DHT22;11516;51.612;7.510;2022-08-25T05:47:49;20.10;97.60
22698;DHT22;11516;51.612;7.510;2022-08-25T05:50:15;20.10;97.70
22698;DHT22;11516;51.612;7.510;2022-08-25T05:52:41;20.20;97.70
22698;DHT22;11516;51.612;7.510;2022-08-25T05:55:07;20.20;97.80
22698;DHT22;11516;51.612;7.510;2022-08-25T05:57:33;20.30;97.60
22698;DHT22;11516;51.612;7.510;2022-08-25T06:00:00;20.30;97.60
22698;DHT22;11516;51.612;7.510;2022-08-25T06:02:26;20.40;97.70
22698;DHT22;11516;51.612;7.510;2022-08-25T06:05:10;20.40;98.00
22698;DHT22;11516;51.612;7.510;2022-08-25T06:07:36;20.50;97.80
22698;DHT22;11516;51.612;7.510;2022-08-25T06:10:04;20.50;97.50
22698;DHT22;11516;51.612;7.510;2022-08-25T06:12:32;20.60;97.50
22698;DHT22;11516;51.612;7.510;2022-08-25T06:14:58;20.60;97.40
22698;DHT22;11516;51.612;7.510;2022-08-25T06:17:24;20.70;97.40
22698;DHT22;11516;51.612;7.510;2022-08-25T06:19:49;20.80;97.40
22698;DHT22;11516;51.612;7.510;2022-08-25T06:22:15;20.90;97.40
22698;DHT22;11516;51.612;7.510;2022-08-25T06:24:40;20.90;97.40
22698;DHT22;11516;51.612;7.510;2022-08-25T06:27:06;21.00;97.30
22698;DHT22;11516;51.612;7.510;2022-08-25T06:29:31;21.10;97.30
22698;DHT22;11516;51.612;7.510;2022-08-25T06:31:57;21.20;97.40
22698;DHT22;11516;51.612;7.510;2022-08-25T06:34:22;21.30;97.40
22698;DHT22;11516;51.612;7.510;2022-08-25T06:36:48;21.30;97.60
22698;DHT22;11516;51.612;7.510;2022-08-25T06:39:15;21.40;97.50
22698;DHT22;11516;51.612;7.510;2022-08-25T06:41:40;21.50;97.40
22698;DHT22;11516;51.612;7.510;2022-08-25T06:44:06;21.60;97.20
22698;DHT22;11516;51.612;7.510;2022-08-25T06:46:33;21.70;97.30
22698;DHT22;11516;51.612;7.510;2022-08-25T06:48:58;21.80;97.80
22698;DHT22;11516;51.612;7.510;2022-08-25T06:51:25;21.90;97.40
22698;DHT22;11516;51.612;7.510;2022-08-25T06:53:51;21.90;97.00
22698;DHT22;11516;51.612;7.510;2022-08-25T06:56:20;22.00;96.50
22698;DHT22;11516;51.612;7.510;2022-08-25T06:58:46;22.10;96.50
22698;DHT22;11516;51.612;7.510;2022-08-25T07:01:22;22.20;96.10
22698;DHT22;11516;51.612;7.510;2022-08-25T07:03:50;22.30;95.90
22698;DHT22;11516;51.612;7.510;2022-08-25T07:06:16;22.50;96.20
22698;DHT22;11516;51.612;7.510;2022-08-25T07:08:43;22.50;95.70
22698;DHT22;11516;51.612;7.510;2022-08-25T07:11:09;22.60;95.80
22698;DHT22;11516;51.612;7.510;2022-08-25T07:13:36;22.70;95.50
22698;DHT22;11516;51.612;7.510;2022-08-25T07:16:03;22.70;95.80
22698;DHT22;11516;51.612;7.510;2022-08-25T07:18:30;22.80;95.30
22698;DHT22;11516;51.612;7.510;2022-08-25T07:20:56;23.00;95.20
22698;DHT22;11516;51.612;7.510;2022-08-25T07:23:23;23.10;95.00
22698;DHT22;11516;51.612;7.510;2022-08-25T07:25:49;23.20;94.90
22698;DHT22;11516;51.612;7.510;2022-08-25T07:28:15;23.30;94.90
22698;DHT22;11516;51.612;7.510;2022-08-25T07:30:44;23.30;94.80
22698;DHT22;11516;51.612;7.510;2022-08-25T07:33:10;23.50;94.80
22698;DHT22;11516;51.612;7.510;2022-08-25T07:35:39;23.60;94.80
22698;DHT22;11516;51.612;7.510;2022-08-25T07:38:06;23.60;94.00
22698;DHT22;11516;51.612;7.510;2022-08-25T07:40:37;23.70;94.40
22698;DHT22;11516;51.612;7.510;2022-08-25T07:43:06;23.80;93.70
22698;DHT22;11516;51.612;7.510;2022-08-25T07:45:34;23.90;93.90
22698;DHT22;11516;51.612;7.510;2022-08-25T07:48:07;24.00;94.10
22698;DHT22;11516;51.612;7.510;2022-08-25T07:50:35;24.10;93.60
22698;DHT22;11516;51.612;7.510;2022-08-25T07:53:03;24.20;93.10
22698;DHT22;11516;51.612;7.510;2022-08-25T07:55:30;24.20;92.90
22698;DHT22;11516;51.612;7.510;2022-08-25T07:57:56;24.30;92.90
22698;DHT22;11516;51.612;7.510;2022-08-25T08:00:25;24.40;92.80
22698;DHT22;11516;51.612;7.510;2022-08-25T08:02:57;24.50;92.60
22698;DHT22;11516;51.612;7.510;2022-08-25T08:05:23;24.60;92.50
22698;DHT22;11516;51.612;7.510;2022-08-25T08:07:48;24.70;92.50
22698;DHT22;11516;51.612;7.510;2022-08-25T08:10:14;24.80;91.90
22698;DHT22;11516;51.612;7.510;2022-08-25T08:12:40;24.90;91.90
22698;DHT22;11516;51.612;7.510;2022-08-25T08:15:07;24.90;91.70
22698;DHT22;11516;51.612;7.510;2022-08-25T08:17:33;25.10;91.70
22698;DHT22;11516;51.612;7.510;2022-08-25T08:19:59;25.10;91.30
22698;DHT22;11516;51.612;7.510;2022-08-25T08:22:24;25.20;91.50
22698;DHT22;11516;51.612;7.510;2022-08-25T08:24:50;25.20;91.30
22698;DHT22;11516;51.612;7.510;2022-08-25T08:27:16;25.40;90.80
22698;DHT22;11516;51.612;7.510;2022-08-25T08:29:41;25.40;91.10
22698;DHT22;11516;51.612;7.510;2022-08-25T08:32:10;25.50;90.70
22698;DHT22;11516;51.612;7.510;2022-08-25T08:34:38;25.60;90.30
22698;DHT22;11516;51.612;7.510;2022-08-25T08:37:05;25.70;90.30
22698;DHT22;11516;51.612;7.510;2022-08-25T08:39:33;25.70;90.20
22698;DHT22;11516;51.612;7.510;2022-08-25T08:45:34;25.70;90.00
22698;DHT22;11516;51.612;7.510;2022-08-25T08:48:13;25.90;89.70
22698;DHT22;11516;51.612;7.510;2022-08-25T08:53:44;26.10;89.20
22698;DHT22;11516;51.612;7.510;2022-08-25T08:56:15;26.10;88.30
22698;DHT22;11516;51.612;7.510;2022-08-25T08:58:45;26.20;88.20
22698;DHT22;11516;51.612;7.510;2022-08-25T09:01:16;26.30;87.00
22698;DHT22;11516;51.612;7.510;2022-08-25T09:03:59;26.30;86.80
22698;DHT22;11516;51.612;7.510;2022-08-25T09:07:00;26.40;87.70
22698;DHT22;11516;51.612;7.510;2022-08-25T09:09:26;26.60;86.90
22698;DHT22;11516;51.612;7.510;2022-08-25T09:11:59;26.60;85.90
22698;DHT22;11516;51.612;7.510;2022-08-25T09:17:05;26.80;85.70
22698;DHT22;11516;51.612;7.510;2022-08-25T09:25:40;27.20;85.10
22698;DHT22;11516;51.612;7.510;2022-08-25T09:28:24;27.20;85.20
22698;DHT22;11516;51.612;7.510;2022-08-25T09:31:02;27.30;84.70
22698;DHT22;11516;51.612;7.510;2022-08-25T09:33:30;27.20;84.40
22698;DHT22;11516;51.612;7.510;2022-08-25T09:35:56;27.30;84.00
22698;DHT22;11516;51.612;7.510;2022-08-25T09:38:22;27.50;83.80
22698;DHT22;11516;51.612;7.510;2022-08-25T09:40:52;27.40;83.00
22698;DHT22;11516;51.612;7.510;2022-08-25T09:46:10;27.50;83.50
22698;DHT22;11516;51.612;7.510;2022-08-25T09:48:50;27.60;82.70
22698;DHT22;11516;51.612;7.510;2022-08-25T09:51:31;27.80;81.70
22698;DHT22;11516;51.612;7.510;2022-08-25T09:54:02;27.70;81.80
22698;DHT22;11516;51.612;7.510;2022-08-25T09:56:35;27.70;82.20
22698;DHT22;11516;51.612;7.510;2022-08-25T09:59:26;27.90;82.20
22698;DHT22;11516;51.612;7.510;2022-08-25T10:02:03;27.90;81.10
22698;DHT22;11516;51.612;7.510;2022-08-25T10:04:32;28.00;80.70
22698;DHT22;11516;51.612;7.510;2022-08-25T10:06:59;28.00;80.10
22698;DHT22;11516;51.612;7.510;2022-08-25T10:09:41;28.10;80.00
22698;DHT22;11516;51.612;7.510;2022-08-25T10:12:39;28.10;79.60
22698;DHT22;11516;51.612;7.510;2022-08-25T10:15:23;28.10;78.50
22698;DHT22;11516;51.612;7.510;2022-08-25T10:17:52;28.10;77.80
22698;DHT22;11516;51.612;7.510;2022-08-25T10:20:23;28.20;78.20
22698;DHT22;11516;51.612;7.510;2022-08-25T10:23:13;28.40;78.20
22698;DHT22;11516;51.612;7.510;2022-08-25T10:25:47;28.50;77.10
22698;DHT22;11516;51.612;7.510;2022-08-25T10:28:32;28.40;77.00
22698;DHT22;11516;51.612;7.510;2022-08-25T10:31:24;28.40;76.70
22698;DHT22;11516;51.612;7.510;2022-08-25T10:39:03;28.70;74.80
22698;DHT22;11516;51.612;7.510;2022-08-25T10:41:41;28.70;75.80
22698;DHT22;11516;51.612;7.510;2022-08-25T10:47:50;28.90;73.60
22698;DHT22;11516;51.612;7.510;2022-08-25T10:53:09;29.10;72.70
22698;DHT22;11516;51.612;7.510;2022-08-25T10:55:43;29.30;71.30
22698;DHT22;11516;51.612;7.510;2022-08-25T10:58:47;29.30;71.70
22698;DHT22;11516;51.612;7.510;2022-08-25T11:04:09;29.30;71.10
22698;DHT22;11516;51.612;7.510;2022-08-25T11:06:59;29.10;70.60
22698;DHT22;11516;51.612;7.510;2022-08-25T11:09:29;29.20;70.20
22698;DHT22;11516;51.612;7.510;2022-08-25T11:12:15;29.50;69.40
22698;DHT22;11516;51.612;7.510;2022-08-25T11:17:16;29.80;69.70
22698;DHT22;11516;51.612;7.510;2022-08-25T11:19:47;30.00;68.40
22698;DHT22;11516;51.612;7.510;2022-08-25T11:22:26;30.20;67.00
22698;DHT22;11516;51.612;7.510;2022-08-25T11:25:18;30.40;66.90
22698;DHT22;11516;51.612;7.510;2022-08-25T11:27:59;30.70;64.40
22698;DHT22;11516;51.612;7.510;2022-08-25T11:30:27;31.70;63.10
22698;DHT22;11516;51.612;7.510;2022-08-25T11:32:53;32.90;60.50
22698;DHT22;11516;51.612;7.510;2022-08-25T11:49:58;36.00;53.50
22698;DHT22;11516;51.612;7.510;2022-08-25T11:52:42;36.60;51.80
22698;DHT22;11516;51.612;7.510;2022-08-25T11:57:50;37.20;51.00
22698;DHT22;11516;51.612;7.510;2022-08-25T12:00:39;36.90;49.20
22698;DHT22;11516;51.612;7.510;2022-08-25T12:29:49;36.00;50.20
22698;DHT22;11516;51.612;7.510;2022-08-25T12:34:52;36.10;50.60
22698;DHT22;11516;51.612;7.510;2022-08-25T12:37:22;36.30;50.70
22698;DHT22;11516;51.612;7.510;2022-08-25T12:42:24;35.50;51.50
22698;DHT22;11516;51.612;7.510;2022-08-25T12:47:47;35.90;50.70
22698;DHT22;11516;51.612;7.510;2022-08-25T12:50:40;35.70;50.30
22698;DHT22;11516;51.612;7.510;2022-08-25T12:53:33;35.70;50.50
22698;DHT22;11516;51.612;7.510;2022-08-25T12:56:04;35.90;50.60
22698;DHT22;11516;51.612;7.510;2022-08-25T12:59:15;35.90;51.80
22698;DHT22;11516;51.612;7.510;2022-08-25T13:06:47;35.70;52.60
22698;DHT22;11516;51.612;7.510;2022-08-25T13:09:42;35.40;51.50
22698;DHT22;11516;51.612;7.510;2022-08-25T13:14:45;35.00;53.10
22698;DHT22;11516;51.612;7.510;2022-08-25T13:17:30;35.20;52.20
22698;DHT22;11516;51.612;7.510;2022-08-25T13:20:17;35.00;53.50
22698;DHT22;11516;51.612;7.510;2022-08-25T13:22:46;34.70;53.80
22698;DHT22;11516;51.612;7.510;2022-08-25T13:25:23;34.80;53.50
22698;DHT22;11516;51.612;7.510;2022-08-25T13:27:53;34.70;53.70
22698;DHT22;11516;51.612;7.510;2022-08-25T13:30:39;34.70;53.90
22698;DHT22;11516;51.612;7.510;2022-08-25T13:33:34;34.70;53.40
22698;DHT22;11516;51.612;7.510;2022-08-25T13:36:01;35.40;53.70
22698;DHT22;11516;51.612;7.510;2022-08-25T13:38:47;35.20;52.80
22698;DHT22;11516;51.612;7.510;2022-08-25T13:41:20;35.20;53.30
22698;DHT22;11516;51.612;7.510;2022-08-25T13:43:48;35.40;53.00
22698;DHT22;11516;51.612;7.510;2022-08-25T13:46:19;35.40;52.80
22698;DHT22;11516;51.612;7.510;2022-08-25T13:48:46;35.20;51.80
22698;DHT22;11516;51.612;7.510;2022-08-25T13:51:26;35.20;52.90
22698;DHT22;11516;51.612;7.510;2022-08-25T13:54:00;35.10;52.70
22698;DHT22;11516;51.612;7.510;2022-08-25T13:56:41;35.20;51.90
22698;DHT22;11516;51.612;7.510;2022-08-25T13:59:25;35.60;52.10
22698;DHT22;11516;51.612;7.510;2022-08-25T14:01:54;35.60;51.80
22698;DHT22;11516;51.612;7.510;2022-08-25T14:07:30;36.50;51.40
22698;DHT22;11516;51.612;7.510;2022-08-25T14:10:18;36.60;49.90
22698;DHT22;11516;51.612;7.510;2022-08-25T14:13:28;36.80;50.30
22698;DHT22;11516;51.612;7.510;2022-08-25T14:16:18;36.80;49.20
22698;DHT22;11516;51.612;7.510;2022-08-25T14:18:50;37.00;49.50
22698;DHT22;11516;51.612;7.510;2022-08-25T14:21:18;36.60;48.80
22698;DHT22;11516;51.612;7.510;2022-08-25T14:23:44;36.60;49.30
22698;DHT22;11516;51.612;7.510;2022-08-25T14:26:10;36.40;49.40
22698;DHT22;11516;51.612;7.510;2022-08-25T14:28:37;36.60;49.60
22698;DHT22;11516;51.612;7.510;2022-08-25T14:31:08;36.50;49.10
22698;DHT22;11516;51.612;7.510;2022-08-25T14:33:42;36.00;49.80
22698;DHT22;11516;51.612;7.510;2022-08-25T14:36:08;35.90;50.70
22698;DHT22;11516;51.612;7.510;2022-08-25T14:38:35;36.00;50.10
22698;DHT22;11516;51.612;7.510;2022-08-25T14:41:04;35.90;50.70
22698;DHT22;11516;51.612;7.510;2022-08-25T14:43:30;35.70;50.20
22698;DHT22;11516;51.612;7.510;2022-08-25T14:45:55;36.10;50.70
22698;DHT22;11516;51.612;7.510;2022-08-25T14:48:29;36.20;49.20
22698;DHT22;11516;51.612;7.510;2022-08-25T14:50:58;36.40;49.30
22698;DHT22;11516;51.612;7.510;2022-08-25T14:53:24;36.50;49.80
22698;DHT22;11516;51.612;7.510;2022-08-25T14:55:50;36.30;49.90
22698;DHT22;11516;51.612;7.510;2022-08-25T14:58:20;36.30;49.60
22698;DHT22;11516;51.612;7.510;2022-08-25T15:00:54;36.10;48.90
22698;DHT22;11516;51.612;7.510;2022-08-25T15:03:30;35.80;50.90
22698;DHT22;11516;51.612;7.510;2022-08-25T15:05:57;36.10;49.70
22698;DHT22;11516;51.612;7.510;2022-08-25T15:08:25;36.10;49.00
22698;DHT22;11516;51.612;7.510;2022-08-25T15:11:10;36.00;48.50
22698;DHT22;11516;51.612;7.510;2022-08-25T15:13:41;36.20;49.40
22698;DHT22;11516;51.612;7.510;2022-08-25T15:16:12;36.10;48.90
22698;DHT22;11516;51.612;7.510;2022-08-25T15:18:41;36.00;49.20
22698;DHT22;11516;51.612;7.510;2022-08-25T15:21:08;35.40;49.70
22698;DHT22;11516;51.612;7.510;2022-08-25T15:23:36;34.90;50.30
22698;DHT22;11516;51.612;7.510;2022-08-25T15:26:02;34.50;51.20
22698;DHT22;11516;51.612;7.510;2022-08-25T15:28:28;34.20;52.40
22698;DHT22;11516;51.612;7.510;2022-08-25T15:30:56;34.20;52.30
22698;DHT22;11516;51.612;7.510;2022-08-25T15:33:22;34.10;52.50
22698;DHT22;11516;51.612;7.510;2022-08-25T15:35:51;34.00;53.30
22698;DHT22;11516;51.612;7.510;2022-08-25T15:38:17;33.90;52.70
22698;DHT22;11516;51.612;7.510;2022-08-25T15:40:43;33.80;52.50
22698;DHT22;11516;51.612;7.510;2022-08-25T15:43:08;33.80;52.50
22698;DHT22;11516;51.612;7.510;2022-08-25T15:45:34;33.70;52.90
22698;DHT22;11516;51.612;7.510;2022-08-25T15:48:00;33.50;53.10
22698;DHT22;11516;51.612;7.510;2022-08-25T15:50:26;33.30;53.10
22698;DHT22;11516;51.612;7.510;2022-08-25T15:52:51;33.40;52.70
22698;DHT22;11516;51.612;7.510;2022-08-25T15:55:17;33.40;53.60
22698;DHT22;11516;51.612;7.510;2022-08-25T15:57:43;33.40;53.40
22698;DHT22;11516;51.612;7.510;2022-08-25T16:00:12;33.30;53.90
22698;DHT22;11516;51.612;7.510;2022-08-25T16:02:41;33.00;54.00
22698;DHT22;11516;51.612;7.510;2022-08-25T16:05:08;32.80;54.50
22698;DHT22;11516;51.612;7.510;2022-08-25T16:07:35;32.60;55.10
22698;DHT22;11516;51.612;7.510;2022-08-25T16:10:00;32.60;55.00
22698;DHT22;11516;51.612;7.510;2022-08-25T16:12:26;32.50;54.50
22698;DHT22;11516;51.612;7.510;2022-08-25T16:14:52;32.50;55.10
22698;DHT22;11516;51.612;7.510;2022-08-25T16:17:18;32.50;55.40
22698;DHT22;11516;51.612;7.510;2022-08-25T16:19:45;32.40;55.70
22698;DHT22;11516;51.612;7.510;2022-08-25T16:22:14;32.40;55.20
22698;DHT22;11516;51.612;7.510;2022-08-25T16:24:42;32.40;55.40
22698;DHT22;11516;51.612;7.510;2022-08-25T16:27:12;32.40;55.90
22698;DHT22;11516;51.612;7.510;2022-08-25T16:29:40;32.30;55.90
22698;DHT22;11516;51.612;7.510;2022-08-25T16:32:08;32.10;55.80
22698;DHT22;11516;51.612;7.510;2022-08-25T16:34:34;32.00;56.10
22698;DHT22;11516;51.612;7.510;2022-08-25T16:37:00;31.90;55.90
22698;DHT22;11516;51.612;7.510;2022-08-25T16:39:26;31.80;56.10
22698;DHT22;11516;51.612;7.510;2022-08-25T16:41:52;31.80;56.80
22698;DHT22;11516;51.612;7.510;2022-08-25T16:44:19;31.60;56.30
22698;DHT22;11516;51.612;7.510;2022-08-25T16:46:45;31.60;56.70
22698;DHT22;11516;51.612;7.510;2022-08-25T16:49:12;31.50;56.70
22698;DHT22;11516;51.612;7.510;2022-08-25T16:51:39;31.40;57.40
22698;DHT22;11516;51.612;7.510;2022-08-25T16:54:06;31.40;57.70
22698;DHT22;11516;51.612;7.510;2022-08-25T16:56:50;31.30;57.10
22698;DHT22;11516;51.612;7.510;2022-08-25T16:59:16;31.30;57.90
22698;DHT22;11516;51.612;7.510;2022-08-25T17:01:42;31.30;57.10
22698;DHT22;11516;51.612;7.510;2022-08-25T17:04:08;31.20;57.10
22698;DHT22;11516;51.612;7.510;2022-08-25T17:06:40;31.20;57.90
22698;DHT22;11516;51.612;7.510;2022-08-25T17:09:07;31.10;58.00
22698;DHT22;11516;51.612;7.510;2022-08-25T17:11:38;31.00;58.30
22698;DHT22;11516;51.612;7.510;2022-08-25T17:14:08;31.10;58.50
22698;DHT22;11516;51.612;7.510;2022-08-25T17:16:34;31.00;58.50
22698;DHT22;11516;51.612;7.510;2022-08-25T17:19:01;30.90;58.30
22698;DHT22;11516;51.612;7.510;2022-08-25T17:21:31;30.90;58.40
22698;DHT22;11516;51.612;7.510;2022-08-25T17:23:57;30.80;58.40